createdAt,value
2022-10-12T00:00:40.304Z,24.30
2022-10-12T00:05:41.821Z,24.45
2022-10-12T00:10:43.340Z,25.80
2022-10-12T00:15:44.913Z,23.98
2022-10-12T00:20:46.427Z,20.65
2022-10-12T00:25:47.948Z,22.92
2022-10-12T00:30:49.454Z,22.55
2022-10-12T00:35:50.966Z,21.80
2022-10-12T00:40:52.461Z,22.73
2022-10-12T00:45:53.971Z,23.38
2022-10-12T00:50:55.490Z,23.40
2022-10-12T00:55:57.046Z,22.02
2022-10-12T01:00:58.657Z,21.67
2022-10-12T01:06:00.214Z,19.35
2022-10-12T01:11:01.725Z,21.25
2022-10-12T01:16:03.253Z,20.90
2022-10-12T01:21:04.793Z,21.13
2022-10-12T01:26:06.318Z,22.55
2022-10-12T01:31:07.833Z,25.02
2022-10-12T01:36:09.351Z,23.67
2022-10-12T01:41:10.874Z,23.42
2022-10-12T01:46:12.381Z,24.67
2022-10-12T01:51:13.908Z,24.70
2022-10-12T01:56:15.426Z,24.08
2022-10-12T02:01:17.018Z,21.75
2022-10-12T02:06:18.718Z,23.77
2022-10-12T02:11:20.250Z,33.15
2022-10-12T02:16:21.771Z,23.92
2022-10-12T02:21:23.282Z,24.55
2022-10-12T02:26:24.802Z,21.70
2022-10-12T02:31:26.324Z,20.70
2022-10-12T02:36:27.864Z,20.35
2022-10-12T02:41:29.372Z,21.48
2022-10-12T02:46:30.892Z,23.88
2022-10-12T02:51:32.421Z,23.23
2022-10-12T02:56:33.944Z,23.50
2022-10-12T03:01:35.522Z,23.60
2022-10-12T03:06:37.096Z,27.08
2022-10-12T03:11:38.618Z,22.25
2022-10-12T03:16:40.150Z,21.48
2022-10-12T03:21:41.701Z,21.20
2022-10-12T03:26:43.235Z,19.90
2022-10-12T03:31:44.748Z,21.30
2022-10-12T03:36:46.274Z,21.17
2022-10-12T03:41:47.808Z,23.08
2022-10-12T03:46:49.334Z,21.58
2022-10-12T03:51:50.847Z,20.20
2022-10-12T03:56:52.350Z,19.33
2022-10-12T04:01:53.926Z,20.40
2022-10-12T04:06:55.526Z,19.63
2022-10-12T04:11:57.062Z,20.40
2022-10-12T04:16:58.602Z,19.30
2022-10-12T04:22:00.146Z,21.80
2022-10-12T04:27:01.676Z,20.60
2022-10-12T04:32:03.188Z,19.40
2022-10-12T04:37:04.721Z,20.75
2022-10-12T04:42:06.251Z,20.20
2022-10-12T04:47:07.767Z,20.63
2022-10-12T04:52:09.272Z,22.13
2022-10-12T04:57:10.786Z,22.98
2022-10-12T05:02:12.328Z,22.33
2022-10-12T05:07:13.867Z,20.65
2022-10-12T05:12:15.383Z,20.65
2022-10-12T05:17:16.916Z,20.23
2022-10-12T05:22:18.434Z,21.35
2022-10-12T05:27:21.984Z,21.48
2022-10-12T05:32:23.491Z,22.27
2022-10-12T05:37:25.018Z,22.10
2022-10-12T05:42:26.546Z,23.95
2022-10-12T05:47:28.096Z,23.95
2022-10-12T05:52:29.656Z,25.85
2022-10-12T05:57:31.170Z,24.95
2022-10-12T06:02:32.687Z,26.95
2022-10-12T06:07:34.214Z,28.95
2022-10-12T06:12:36.030Z,33.00
2022-10-12T06:17:37.790Z,36.97
2022-10-12T06:22:39.660Z,39.08
2022-10-12T06:27:41.628Z,44.97
2022-10-12T06:32:43.156Z,48.53
2022-10-12T06:37:49.870Z,52.67
2022-10-12T06:42:54.944Z,52.03
2022-10-12T06:47:59.184Z,48.70
2022-10-12T06:53:00.706Z,45.50
2022-10-12T06:58:02.210Z,36.70
2022-10-12T07:03:03.753Z,27.98
2022-10-12T07:08:05.272Z,26.83
2022-10-12T07:13:06.786Z,26.55
2022-10-12T07:18:08.314Z,27.15
2022-10-12T07:23:09.824Z,24.35
2022-10-12T07:28:11.404Z,24.52
2022-10-12T07:33:12.970Z,23.05
2022-10-12T07:38:14.466Z,22.17
2022-10-12T07:43:16.588Z,22.77
2022-10-12T07:48:18.287Z,23.08
2022-10-12T07:53:19.805Z,21.42
2022-10-12T07:58:21.328Z,20.90
2022-10-12T08:03:22.876Z,22.92
2022-10-12T08:08:24.450Z,21.02
2022-10-12T08:13:25.952Z,21.48
2022-10-12T08:18:27.466Z,20.13
2022-10-12T08:23:29.196Z,18.05
2022-10-12T08:28:30.776Z,19.73
2022-10-12T08:33:32.527Z,21.83
2022-10-12T08:38:34.056Z,19.48
2022-10-12T08:43:35.585Z,18.13
2022-10-12T08:48:37.133Z,18.17
2022-10-12T08:53:38.657Z,16.35
2022-10-12T08:58:40.167Z,15.07
2022-10-12T09:03:41.683Z,16.15
2022-10-12T09:08:43.208Z,14.43
2022-10-12T09:13:44.856Z,12.80
2022-10-12T09:18:46.401Z,11.80
2022-10-12T09:23:47.934Z,12.57
2022-10-12T09:28:49.643Z,11.45
2022-10-12T09:33:51.310Z,11.38
2022-10-12T09:38:52.834Z,10.85
2022-10-12T09:43:54.350Z,9.25
2022-10-12T09:48:55.856Z,11.02
2022-10-12T09:53:57.900Z,10.00
2022-10-12T09:58:59.490Z,10.85
2022-10-12T10:04:01.162Z,10.85
2022-10-12T10:09:02.694Z,8.25
2022-10-12T10:14:04.249Z,8.57
2022-10-12T10:19:05.770Z,7.20
2022-10-12T10:24:07.293Z,8.00
2022-10-12T10:29:08.817Z,8.68
2022-10-12T10:34:10.328Z,7.20
2022-10-12T10:39:11.850Z,6.13
2022-10-12T10:44:13.373Z,6.68
2022-10-12T10:49:14.889Z,5.15
2022-10-12T10:54:16.411Z,4.85
2022-10-12T10:59:17.981Z,2.85
2022-10-12T11:04:19.515Z,2.25
2022-10-12T11:09:21.014Z,3.28
2022-10-12T11:14:22.546Z,3.30
2022-10-12T11:19:24.067Z,3.40
2022-10-12T11:24:25.591Z,3.58
2022-10-12T11:29:27.114Z,3.90
2022-10-12T11:34:28.644Z,2.50
2022-10-12T11:39:30.174Z,2.60
2022-10-12T11:44:31.693Z,2.58
2022-10-12T11:49:33.454Z,2.15
2022-10-12T11:54:34.990Z,2.00
2022-10-12T11:59:36.496Z,2.00
2022-10-12T12:04:42.799Z,2.38
2022-10-12T12:09:50.090Z,2.13
2022-10-12T12:14:52.220Z,2.30
2022-10-12T12:19:53.733Z,2.67
2022-10-12T12:24:55.245Z,2.80
2022-10-12T12:29:56.767Z,2.60
2022-10-12T12:35:00.628Z,2.67
2022-10-12T12:40:02.505Z,2.60
2022-10-12T12:45:04.053Z,2.20
2022-10-12T12:50:05.600Z,2.30
2022-10-12T12:55:07.105Z,2.60
2022-10-12T13:00:08.627Z,2.55
2022-10-12T13:05:10.170Z,2.40
2022-10-12T13:10:11.706Z,2.40
2022-10-12T13:15:13.232Z,2.85
2022-10-12T13:20:14.782Z,2.38
2022-10-12T13:25:16.301Z,2.47
2022-10-12T13:30:17.818Z,2.30
2022-10-12T13:35:19.329Z,2.67
2022-10-12T13:40:20.886Z,2.53
2022-10-12T13:45:22.401Z,1.95
2022-10-12T13:50:23.967Z,2.58
2022-10-12T13:55:25.481Z,2.25
2022-10-12T14:00:26.998Z,2.70
2022-10-12T14:05:28.522Z,2.30
2022-10-12T14:10:30.041Z,2.30
2022-10-12T14:15:31.571Z,2.17
2022-10-12T14:20:33.104Z,3.95
2022-10-12T14:25:34.618Z,2.70
2022-10-12T14:30:36.141Z,2.90
2022-10-12T14:35:37.665Z,2.97
2022-10-12T14:40:39.181Z,2.80
2022-10-12T14:45:40.719Z,2.28
2022-10-12T14:50:42.228Z,2.70
2022-10-12T14:55:43.753Z,2.35
2022-10-12T15:06:03.730Z,2.42
2022-10-12T15:11:05.249Z,2.45
2022-10-12T15:16:06.831Z,2.97
2022-10-12T15:21:08.366Z,3.20
2022-10-12T15:26:09.909Z,3.47
2022-10-12T15:31:17.615Z,3.53
2022-10-12T15:36:20.034Z,4.05
2022-10-12T15:41:21.554Z,4.22
2022-10-12T15:46:23.106Z,5.90
2022-10-12T15:51:24.612Z,8.05
2022-10-12T15:56:26.126Z,8.32
2022-10-12T16:01:27.704Z,8.23
2022-10-12T16:06:29.265Z,5.50
2022-10-12T16:11:30.783Z,9.68
2022-10-12T16:16:32.345Z,14.93
2022-10-12T16:21:33.881Z,14.55
2022-10-12T16:26:35.401Z,13.18
2022-10-12T16:31:36.965Z,22.48
2022-10-12T16:36:38.537Z,32.35
2022-10-12T16:41:40.084Z,22.63
2022-10-12T16:46:41.623Z,23.80
2022-10-12T16:51:43.157Z,21.58
2022-10-12T16:56:44.675Z,37.97
2022-10-12T17:01:46.187Z,16.15
2022-10-12T17:06:47.738Z,14.25
2022-10-12T17:11:49.268Z,18.17
2022-10-12T17:16:50.804Z,15.55
2022-10-12T17:21:52.370Z,13.65
2022-10-12T17:26:53.920Z,9.80
2022-10-12T17:31:55.442Z,11.60
2022-10-12T17:36:56.973Z,11.73
2022-10-12T17:41:58.579Z,25.80
2022-10-12T17:47:00.084Z,23.67
2022-10-12T17:52:01.596Z,23.50
2022-10-12T17:57:03.125Z,26.50
2022-10-12T18:02:09.178Z,14.52
2022-10-12T18:07:11.129Z,12.10
2022-10-12T18:12:12.649Z,19.60
2022-10-12T18:17:14.186Z,27.60
2022-10-12T18:22:15.905Z,14.98
2022-10-12T18:27:17.714Z,14.65
2022-10-12T18:32:19.665Z,13.18
2022-10-12T18:37:21.510Z,13.38
2022-10-12T18:42:23.037Z,12.15
2022-10-12T18:47:24.703Z,14.02
2022-10-12T18:52:26.242Z,19.40
2022-10-12T18:57:31.590Z,16.58
2022-10-12T19:02:34.346Z,11.98
2022-10-12T19:07:35.899Z,12.55
2022-10-12T19:12:38.118Z,13.07
2022-10-12T19:17:41.691Z,15.07
2022-10-12T19:22:43.208Z,13.95
2022-10-12T19:27:44.721Z,11.70
2022-10-12T19:32:46.252Z,10.65
2022-10-12T19:37:47.757Z,10.00
2022-10-12T19:42:51.343Z,11.25
2022-10-12T19:47:52.874Z,11.38
2022-10-12T19:52:54.381Z,12.48
2022-10-12T19:57:55.902Z,16.50
2022-10-12T20:02:57.406Z,13.93
2022-10-12T20:07:58.917Z,12.23
2022-10-12T20:13:00.448Z,17.15
2022-10-12T20:18:01.979Z,14.48
2022-10-12T20:23:03.511Z,11.85
2022-10-12T20:28:05.040Z,10.88
2022-10-12T20:33:06.565Z,9.77
2022-10-12T20:38:08.099Z,11.07
2022-10-12T20:43:09.641Z,11.90
2022-10-12T20:48:11.171Z,13.27
2022-10-12T20:53:12.711Z,13.32
2022-10-12T20:58:14.220Z,14.65
2022-10-12T21:03:15.724Z,12.63
2022-10-12T21:08:17.235Z,13.15
2022-10-12T21:13:18.755Z,13.18
2022-10-12T21:18:20.277Z,11.73
2022-10-12T21:23:21.797Z,12.80
2022-10-12T21:28:23.471Z,13.68
2022-10-12T21:33:25.082Z,14.38
2022-10-12T21:38:26.610Z,13.75
2022-10-12T21:43:28.133Z,14.05
2022-10-12T21:48:29.655Z,14.85
2022-10-12T21:53:31.173Z,15.77
2022-10-12T21:58:32.680Z,17.45
2022-10-12T22:09:00.057Z,14.70
2022-10-12T22:14:01.590Z,14.13
2022-10-12T22:19:03.111Z,13.85
2022-10-12T22:24:04.634Z,15.85
2022-10-12T22:29:06.173Z,14.05
2022-10-12T22:34:07.692Z,15.57
2022-10-12T22:39:09.249Z,18.77
2022-10-12T22:49:36.861Z,17.73
2022-10-12T22:54:38.383Z,18.92
2022-10-12T22:59:39.904Z,18.50
2022-10-12T23:04:41.433Z,18.63
2022-10-12T23:09:42.958Z,19.60
2022-10-12T23:14:44.466Z,19.58
2022-10-12T23:19:45.971Z,20.27
2022-10-12T23:24:47.480Z,19.95
2022-10-12T23:29:49.003Z,18.70
2022-10-12T23:34:50.543Z,20.45
2022-10-12T23:39:52.071Z,19.20
2022-10-12T23:44:53.607Z,19.98
2022-10-12T23:49:55.111Z,18.92
2022-10-12T23:54:56.632Z,20.00
2022-10-12T23:59:58.161Z,19.83
